createdAt,value
2023-08-11T00:01:31.010Z,69.50
2023-08-11T00:03:58.406Z,69.89
2023-08-11T00:06:26.497Z,69.07
2023-08-11T00:08:56.185Z,69.01
2023-08-11T00:11:23.521Z,69.02
2023-08-11T00:13:50.580Z,70.08
2023-08-11T00:16:17.639Z,70.44
2023-08-11T00:18:44.585Z,70.45
2023-08-11T00:21:13.752Z,69.65
2023-08-11T00:23:41.192Z,69.52
2023-08-11T00:26:07.891Z,70.80
2023-08-11T00:28:34.590Z,70.66
2023-08-11T00:31:01.379Z,70.02
2023-08-11T00:33:28.217Z,70.03
2023-08-11T00:35:55.337Z,71.09
2023-08-11T00:38:24.918Z,70.42
2023-08-11T00:40:53.067Z,71.73
2023-08-11T00:43:19.903Z,71.26
2023-08-11T00:45:49.387Z,70.68
2023-08-11T00:48:16.757Z,71.21
2023-08-11T00:50:43.729Z,70.74
2023-08-11T00:53:11.219Z,69.84
2023-08-11T00:55:38.870Z,69.68
2023-08-11T00:58:06.969Z,69.27
2023-08-11T01:00:34.945Z,69.21
2023-08-11T01:03:02.926Z,69.19
2023-08-11T01:05:35.756Z,69.33
2023-08-11T01:08:21.854Z,70.30
2023-08-11T01:10:58.850Z,69.51
2023-08-11T01:13:30.374Z,69.08
2023-08-11T01:16:01.441Z,69.42
2023-08-11T01:18:30.044Z,70.44
2023-08-11T01:21:01.199Z,70.73
2023-08-11T01:23:28.288Z,70.36
2023-08-11T01:25:55.954Z,69.59
2023-08-11T01:28:23.821Z,69.28
2023-08-11T01:30:50.555Z,70.18
2023-08-11T01:33:17.320Z,70.96
2023-08-11T01:35:45.448Z,71.35
2023-08-11T01:38:12.192Z,70.55
2023-08-11T01:40:39.913Z,70.86
2023-08-11T01:43:09.683Z,71.54
2023-08-11T01:45:36.504Z,71.32
2023-08-11T01:48:04.696Z,70.77
2023-08-11T01:50:33.328Z,70.21
2023-08-11T01:53:00.007Z,70.29
2023-08-11T01:55:27.435Z,70.18
2023-08-11T01:57:59.090Z,69.94
2023-08-11T02:00:28.584Z,71.53
2023-08-11T02:02:56.097Z,71.65
2023-08-11T02:05:25.968Z,71.60
2023-08-11T02:07:53.684Z,71.98
2023-08-11T02:10:20.638Z,73.01
2023-08-11T02:12:49.730Z,73.20
2023-08-11T02:15:16.453Z,72.81
2023-08-11T02:17:43.892Z,71.74
2023-08-11T02:20:29.518Z,72.38
2023-08-11T02:22:56.575Z,73.26
2023-08-11T02:25:23.569Z,74.13
2023-08-11T02:27:50.871Z,73.01
2023-08-11T02:30:18.700Z,72.70
2023-08-11T02:32:48.852Z,72.77
2023-08-11T02:35:18.509Z,72.39
2023-08-11T02:37:45.821Z,72.51
2023-08-11T02:40:12.693Z,72.34
2023-08-11T02:42:43.751Z,72.82
2023-08-11T02:45:11.778Z,72.54
2023-08-11T02:47:40.350Z,72.25
2023-08-11T02:50:07.897Z,72.30
2023-08-11T02:52:35.917Z,72.22
2023-08-11T02:55:07.531Z,73.39
2023-08-11T02:57:35.740Z,73.01
2023-08-11T03:00:09.468Z,72.82
2023-08-11T03:02:36.867Z,73.44
2023-08-11T03:05:04.966Z,73.29
2023-08-11T03:07:32.435Z,72.94
2023-08-11T03:09:59.418Z,72.58
2023-08-11T03:12:29.232Z,72.82
2023-08-11T03:14:56.580Z,72.36
2023-08-11T03:17:24.672Z,72.08
2023-08-11T03:19:52.905Z,71.58
2023-08-11T03:22:20.933Z,71.57
2023-08-11T03:24:49.173Z,72.36
2023-08-11T03:27:16.309Z,73.63
2023-08-11T03:29:43.053Z,73.15
2023-08-11T03:32:10.702Z,73.77
2023-08-11T03:34:38.701Z,74.70
2023-08-11T03:37:06.614Z,74.88
2023-08-11T03:39:33.460Z,74.34
2023-08-11T03:42:00.139Z,74.05
2023-08-11T03:44:27.160Z,73.47
2023-08-11T03:46:54.407Z,73.95
2023-08-11T03:49:21.325Z,73.09
2023-08-11T03:51:48.084Z,73.04
2023-08-11T03:54:16.338Z,72.76
2023-08-11T03:56:43.093Z,72.92
2023-08-11T03:59:09.880Z,72.73
2023-08-11T04:01:37.111Z,72.20
2023-08-11T04:04:04.116Z,71.87
2023-08-11T04:06:33.979Z,71.91
2023-08-11T04:09:02.659Z,73.40
2023-08-11T04:11:31.034Z,74.78
2023-08-11T04:13:57.899Z,75.48
2023-08-11T04:16:24.730Z,75.09
2023-08-11T04:18:51.412Z,74.34
2023-08-11T04:21:18.258Z,73.88
2023-08-11T04:23:45.015Z,73.74
2023-08-11T04:26:13.298Z,73.78
2023-08-11T04:28:42.665Z,73.51
2023-08-11T04:31:10.929Z,74.34
2023-08-11T04:33:38.679Z,73.66
2023-08-11T04:36:05.695Z,73.38
2023-08-11T04:38:32.457Z,73.01
2023-08-11T04:40:59.912Z,73.09
2023-08-11T04:43:26.749Z,73.32
2023-08-11T04:45:55.363Z,73.83
2023-08-11T04:48:23.148Z,73.94
2023-08-11T04:50:53.363Z,74.23
2023-08-11T04:53:22.372Z,75.02
2023-08-11T04:55:49.673Z,74.58
2023-08-11T04:58:16.598Z,74.94
2023-08-11T05:00:44.476Z,74.74
2023-08-11T05:03:11.503Z,75.31
2023-08-11T05:05:38.287Z,76.12
2023-08-11T05:08:05.439Z,76.12
2023-08-11T05:10:32.109Z,75.69
2023-08-11T05:13:00.097Z,75.06
2023-08-11T05:15:26.939Z,74.48
2023-08-11T05:17:53.736Z,74.69
2023-08-11T05:20:20.440Z,75.42
2023-08-11T05:22:48.862Z,75.04
2023-08-11T05:25:15.737Z,74.53
2023-08-11T05:27:42.662Z,74.14
2023-08-11T05:30:09.758Z,74.50
2023-08-11T05:32:36.860Z,75.02
2023-08-11T05:35:03.884Z,75.35
2023-08-11T05:37:30.900Z,75.30
2023-08-11T05:39:57.659Z,74.94
2023-08-11T05:42:25.042Z,74.98
2023-08-11T05:44:51.819Z,74.42
2023-08-11T05:47:18.807Z,75.25
2023-08-11T05:49:45.520Z,74.50
2023-08-11T05:52:12.419Z,77.46
2023-08-11T05:54:39.095Z,81.22
2023-08-11T05:57:05.986Z,83.90
2023-08-11T05:59:33.302Z,83.77
2023-08-11T06:02:00.186Z,83.79
2023-08-11T06:04:27.229Z,84.00
2023-08-11T06:06:54.894Z,82.90
2023-08-11T06:09:22.669Z,81.37
2023-08-11T06:11:49.448Z,79.78
2023-08-11T06:14:16.146Z,78.57
2023-08-11T06:16:42.861Z,77.41
2023-08-11T06:19:09.542Z,76.42
2023-08-11T06:21:36.434Z,76.41
2023-08-11T06:24:04.272Z,75.92
2023-08-11T06:26:31.361Z,75.80
2023-08-11T06:28:58.346Z,75.50
2023-08-11T06:31:25.059Z,75.03
2023-08-11T06:33:51.705Z,75.19
2023-08-11T06:36:19.129Z,74.69
2023-08-11T06:38:45.861Z,74.71
2023-08-11T06:41:13.024Z,74.18
2023-08-11T06:43:40.403Z,73.89
2023-08-11T06:46:07.682Z,73.35
2023-08-11T06:48:34.749Z,73.61
2023-08-11T06:51:01.597Z,76.20
2023-08-11T06:53:28.410Z,76.07
2023-08-11T06:55:55.182Z,77.17
2023-08-11T06:58:24.073Z,77.54
2023-08-11T07:00:52.501Z,77.71
2023-08-11T07:03:19.229Z,77.66
2023-08-11T07:05:46.345Z,76.45
2023-08-11T07:08:13.112Z,76.03
2023-08-11T07:10:40.840Z,77.03
2023-08-11T07:13:07.564Z,75.64
2023-08-11T07:15:36.109Z,77.77
2023-08-11T07:18:04.824Z,76.84
2023-08-11T07:20:31.686Z,76.36
2023-08-11T07:22:58.365Z,75.43
2023-08-11T07:25:25.147Z,75.43
2023-08-11T07:27:51.903Z,75.37
2023-08-11T07:30:18.940Z,75.25
2023-08-11T07:32:45.687Z,75.38
2023-08-11T07:35:12.520Z,74.85
2023-08-11T07:37:39.167Z,75.72
2023-08-11T07:40:07.656Z,75.18
2023-08-11T07:42:34.397Z,74.64
2023-08-11T07:45:01.144Z,74.87
2023-08-11T07:47:28.155Z,72.99
2023-08-11T07:49:57.706Z,72.44
2023-08-11T07:52:25.011Z,72.01
2023-08-11T07:54:51.779Z,71.79
2023-08-11T07:57:18.750Z,71.19
2023-08-11T07:59:45.668Z,70.82
2023-08-11T08:02:14.354Z,71.83
2023-08-11T08:04:41.177Z,69.76
2023-08-11T08:07:08.272Z,71.33
2023-08-11T08:09:35.669Z,71.33
2023-08-11T08:12:03.170Z,71.74
2023-08-11T08:14:30.080Z,72.21
2023-08-11T08:16:58.061Z,71.40
2023-08-11T08:19:24.869Z,72.12
2023-08-11T08:21:52.066Z,69.46
2023-08-11T08:24:18.724Z,70.85
2023-08-11T08:26:45.686Z,72.43
2023-08-11T08:29:12.449Z,71.48
2023-08-11T08:31:39.462Z,72.92
2023-08-11T08:34:06.217Z,70.45
2023-08-11T08:36:32.936Z,70.31
2023-08-11T08:38:59.622Z,69.38
2023-08-11T08:41:32.177Z,70.52
2023-08-11T08:44:01.507Z,72.20
2023-08-11T08:46:29.703Z,71.36
2023-08-11T08:49:06.064Z,69.70
2023-08-11T08:51:33.063Z,70.54
2023-08-11T08:53:59.707Z,70.09
2023-08-11T08:56:27.827Z,68.40
2023-08-11T08:58:54.671Z,68.50
2023-08-11T09:01:23.029Z,68.69
2023-08-11T09:03:50.847Z,69.72
2023-08-11T09:06:18.243Z,69.74
2023-08-11T09:08:45.146Z,71.29
2023-08-11T09:11:11.932Z,69.49
2023-08-11T09:13:39.202Z,66.62
2023-08-11T09:16:06.478Z,65.75
2023-08-11T09:18:33.916Z,67.38
2023-08-11T09:21:03.377Z,66.25
2023-08-11T09:23:30.585Z,65.41
2023-08-11T09:25:57.439Z,66.16
2023-08-11T09:28:24.215Z,66.80
2023-08-11T09:30:51.773Z,65.02
2023-08-11T09:33:19.367Z,64.81
2023-08-11T09:35:46.353Z,65.62
2023-08-11T09:38:13.105Z,64.42
2023-08-11T09:40:41.145Z,64.59
2023-08-11T09:43:08.249Z,63.37
2023-08-11T09:45:35.027Z,64.61
2023-08-11T09:48:01.835Z,63.98
2023-08-11T09:50:31.359Z,63.94
2023-08-11T09:53:00.980Z,64.09
2023-08-11T09:55:31.067Z,63.65
2023-08-11T09:57:59.403Z,63.36
2023-08-11T10:00:26.514Z,64.54
2023-08-11T10:03:10.748Z,64.53
2023-08-11T10:05:46.442Z,64.31
2023-08-11T10:08:20.040Z,62.17
2023-08-11T10:10:47.128Z,62.12
2023-08-11T10:13:17.184Z,62.85
2023-08-11T10:15:45.203Z,61.55
2023-08-11T10:18:12.076Z,61.80
2023-08-11T10:20:39.655Z,60.23
2023-08-11T10:23:07.307Z,60.33
2023-08-11T10:25:34.259Z,61.39
2023-08-11T10:28:02.291Z,59.83
2023-08-11T10:30:29.515Z,61.53
2023-08-11T10:33:10.366Z,61.20
2023-08-11T10:35:49.009Z,60.85
2023-08-11T10:38:30.353Z,62.01
2023-08-11T10:41:09.436Z,61.25
2023-08-11T10:43:44.210Z,60.07
2023-08-11T10:46:31.421Z,62.41
2023-08-11T10:49:05.043Z,62.22
2023-08-11T10:51:39.063Z,61.67
2023-08-11T10:54:15.113Z,62.32
2023-08-11T10:56:43.804Z,64.02
2023-08-11T10:59:15.986Z,62.08
2023-08-11T11:01:47.757Z,60.61
2023-08-11T11:04:16.910Z,60.41
2023-08-11T11:06:48.432Z,60.23
2023-08-11T11:09:16.140Z,61.63
2023-08-11T11:11:44.446Z,61.39
2023-08-11T11:14:13.026Z,60.03
2023-08-11T11:16:40.646Z,60.86
2023-08-11T11:19:08.825Z,60.45
2023-08-11T11:21:36.086Z,60.57
2023-08-11T11:24:03.089Z,63.08
2023-08-11T11:26:31.875Z,63.71
2023-08-11T11:29:00.726Z,58.90
2023-08-11T11:31:32.017Z,61.59
2023-08-11T11:33:59.030Z,59.61
2023-08-11T11:36:26.510Z,60.84
2023-08-11T11:38:53.425Z,58.82
2023-08-11T11:41:21.247Z,58.15
2023-08-11T11:43:52.078Z,58.96
2023-08-11T11:46:21.141Z,56.31
2023-08-11T11:48:52.981Z,59.31
2023-08-11T11:51:31.242Z,58.83
2023-08-11T11:54:02.318Z,56.57
2023-08-11T11:56:30.689Z,57.00
2023-08-11T11:58:57.919Z,59.76
2023-08-11T12:01:30.508Z,57.34
2023-08-11T12:04:01.661Z,58.48
2023-08-11T12:06:29.907Z,58.40
2023-08-11T12:09:06.324Z,58.47
2023-08-11T12:11:33.896Z,59.02
2023-08-11T12:14:01.665Z,57.35
2023-08-11T12:16:29.223Z,57.28
2023-08-11T12:19:01.587Z,57.15
2023-08-11T12:21:29.328Z,56.51
2023-08-11T12:23:56.457Z,58.65
2023-08-11T12:26:23.200Z,56.11
2023-08-11T12:28:49.856Z,56.84
2023-08-11T12:31:16.916Z,56.74
2023-08-11T12:33:43.727Z,56.67
2023-08-11T12:36:10.725Z,57.01
2023-08-11T12:38:37.708Z,56.09
2023-08-11T12:41:04.533Z,57.99
2023-08-11T12:43:31.158Z,56.79
2023-08-11T12:45:58.019Z,57.44
2023-08-11T12:48:24.962Z,54.16
2023-08-11T12:50:51.803Z,55.00
2023-08-11T12:53:18.434Z,55.34
2023-08-11T12:55:45.263Z,55.48
2023-08-11T12:58:11.932Z,55.29
2023-08-11T13:00:38.661Z,56.35
2023-08-11T13:03:05.811Z,56.21
2023-08-11T13:05:32.551Z,56.91
2023-08-11T13:07:59.372Z,56.72
2023-08-11T13:10:26.342Z,57.10
2023-08-11T13:12:53.046Z,56.46
2023-08-11T13:15:20.512Z,56.68
2023-08-11T13:17:47.765Z,56.20
2023-08-11T13:20:14.572Z,55.74
2023-08-11T13:22:42.473Z,55.33
2023-08-11T13:25:10.621Z,56.06
2023-08-11T13:27:38.668Z,56.25
2023-08-11T13:30:09.273Z,55.42
2023-08-11T13:32:36.611Z,56.64
2023-08-11T13:35:03.604Z,55.82
2023-08-11T13:37:30.408Z,55.14
2023-08-11T13:39:58.705Z,54.51
2023-08-11T13:42:25.485Z,55.31
2023-08-11T13:44:52.242Z,55.35
2023-08-11T13:47:19.150Z,55.78
2023-08-11T13:49:45.867Z,54.73
2023-08-11T13:52:12.602Z,55.87
2023-08-11T13:54:39.336Z,55.04
2023-08-11T13:57:06.169Z,55.10
2023-08-11T13:59:32.827Z,55.18
2023-08-11T14:01:59.585Z,55.16
2023-08-11T14:04:26.277Z,55.50
2023-08-11T14:06:57.434Z,53.71
2023-08-11T14:09:27.793Z,55.11
2023-08-11T14:11:54.411Z,56.03
2023-08-11T14:14:21.080Z,54.55
2023-08-11T14:16:47.756Z,55.65
2023-08-11T14:19:14.457Z,55.62
2023-08-11T14:21:41.309Z,55.77
2023-08-11T14:24:08.733Z,56.18
2023-08-11T14:26:35.371Z,54.70
2023-08-11T14:29:02.535Z,55.89
2023-08-11T14:31:29.230Z,55.38
2023-08-11T14:33:56.003Z,56.56
2023-08-11T14:36:22.820Z,53.50
2023-08-11T14:38:49.691Z,55.08
2023-08-11T14:41:16.706Z,55.29
2023-08-11T14:43:43.895Z,54.58
2023-08-11T14:46:10.600Z,55.01
2023-08-11T14:48:37.261Z,54.77
2023-08-11T14:51:08.145Z,54.09
2023-08-11T14:53:34.996Z,54.70
2023-08-11T14:56:02.010Z,53.38
2023-08-11T14:58:29.131Z,52.87
2023-08-11T15:00:58.724Z,54.22
2023-08-11T15:03:25.761Z,54.24
2023-08-11T15:05:52.459Z,52.35
2023-08-11T15:08:19.230Z,53.25
2023-08-11T15:10:45.929Z,52.33
2023-08-11T15:13:14.161Z,53.41
2023-08-11T15:15:42.941Z,53.81
2023-08-11T15:18:09.628Z,53.68
2023-08-11T15:20:36.380Z,53.32
2023-08-11T15:23:03.188Z,53.71
2023-08-11T15:25:29.947Z,52.27
2023-08-11T15:27:57.142Z,53.09
2023-08-11T15:30:24.210Z,52.06
2023-08-11T15:32:51.188Z,53.34
2023-08-11T15:35:19.121Z,52.86
2023-08-11T15:37:46.143Z,51.88
2023-08-11T15:40:13.235Z,52.26
2023-08-11T15:42:40.239Z,52.15
2023-08-11T15:45:07.572Z,52.30
2023-08-11T15:47:34.242Z,53.07
2023-08-11T15:50:01.797Z,53.89
2023-08-11T15:52:28.713Z,52.99
2023-08-11T15:54:55.399Z,51.77
2023-08-11T15:57:22.239Z,52.01
2023-08-11T15:59:49.035Z,50.95
2023-08-11T16:02:16.027Z,51.18
2023-08-11T16:04:42.909Z,51.24
2023-08-11T16:07:09.802Z,51.37
2023-08-11T16:09:37.877Z,52.18
2023-08-11T16:12:04.895Z,51.32
2023-08-11T16:14:32.411Z,51.60
2023-08-11T16:16:59.973Z,51.94
2023-08-11T16:19:26.665Z,51.62
2023-08-11T16:21:53.378Z,51.95
2023-08-11T16:24:20.389Z,52.45
2023-08-11T16:26:47.035Z,51.79
2023-08-11T16:29:13.764Z,50.90
2023-08-11T16:31:40.413Z,52.20
2023-08-11T16:34:07.205Z,51.52
2023-08-11T16:36:34.007Z,50.67
2023-08-11T16:39:00.700Z,51.36
2023-08-11T16:41:27.480Z,51.65
2023-08-11T16:43:54.629Z,51.38
2023-08-11T16:46:23.506Z,50.78
2023-08-11T16:48:50.820Z,50.06
2023-08-11T16:51:17.540Z,51.85
2023-08-11T16:53:44.458Z,51.29
2023-08-11T16:56:11.485Z,51.41
2023-08-11T16:58:38.415Z,51.55
2023-08-11T17:01:05.662Z,51.74
2023-08-11T17:03:32.759Z,51.46
2023-08-11T17:05:59.873Z,52.51
2023-08-11T17:08:26.673Z,52.24
2023-08-11T17:10:53.436Z,52.51
2023-08-11T17:13:20.330Z,53.58
2023-08-11T17:15:47.010Z,54.91
2023-08-11T17:18:13.827Z,53.24
2023-08-11T17:20:40.700Z,53.53
2023-08-11T17:23:07.533Z,53.76
2023-08-11T17:25:34.263Z,54.37
2023-08-11T17:28:01.033Z,53.94
2023-08-11T17:30:30.739Z,55.15
2023-08-11T17:32:58.673Z,56.18
2023-08-11T17:35:25.907Z,56.45
2023-08-11T17:37:52.735Z,56.05
2023-08-11T17:40:19.418Z,58.36
2023-08-11T17:42:46.343Z,59.06
2023-08-11T17:45:13.218Z,59.60
2023-08-11T17:47:40.303Z,59.75
2023-08-11T17:50:07.411Z,59.89
2023-08-11T17:52:34.912Z,60.93
2023-08-11T17:55:01.728Z,61.31
2023-08-11T17:57:28.493Z,61.63
2023-08-11T17:59:55.214Z,61.49
2023-08-11T18:02:22.046Z,61.63
2023-08-11T18:04:48.729Z,62.01
2023-08-11T18:07:15.431Z,62.16
2023-08-11T18:09:42.117Z,62.66
2023-08-11T18:12:09.835Z,62.80
2023-08-11T18:14:36.873Z,62.88
2023-08-11T18:17:04.266Z,63.00
2023-08-11T18:19:31.044Z,62.83
2023-08-11T18:21:57.834Z,63.45
2023-08-11T18:24:24.492Z,63.08
2023-08-11T18:26:51.226Z,63.77
2023-08-11T18:29:19.193Z,63.47
2023-08-11T18:31:46.112Z,63.35
2023-08-11T18:34:12.770Z,63.45
2023-08-11T18:36:39.475Z,63.29
2023-08-11T18:39:06.301Z,63.45
2023-08-11T18:41:33.094Z,64.02
2023-08-11T18:44:00.973Z,64.03
2023-08-11T18:46:27.889Z,63.89
2023-08-11T18:48:54.820Z,63.53
2023-08-11T18:51:21.567Z,63.02
2023-08-11T18:53:48.210Z,63.18
2023-08-11T18:56:14.999Z,62.39
2023-08-11T18:58:41.898Z,62.95
2023-08-11T19:01:08.685Z,63.39
2023-08-11T19:03:35.938Z,63.76
2023-08-11T19:06:02.810Z,63.65
2023-08-11T19:08:29.702Z,62.75
2023-08-11T19:10:56.463Z,62.39
2023-08-11T19:13:23.244Z,62.17
2023-08-11T19:15:50.708Z,62.33
2023-08-11T19:18:18.026Z,62.16
2023-08-11T19:20:47.240Z,63.42
2023-08-11T19:23:14.447Z,62.67
2023-08-11T19:25:41.247Z,62.09
2023-08-11T19:28:08.367Z,62.26
2023-08-11T19:30:35.506Z,61.54
2023-08-11T19:33:02.586Z,62.42
2023-08-11T19:35:29.454Z,62.52
2023-08-11T19:37:56.155Z,62.54
2023-08-11T19:40:23.018Z,62.67
2023-08-11T19:42:49.662Z,62.11
2023-08-11T19:45:16.487Z,61.52
2023-08-11T19:47:43.466Z,62.15
2023-08-11T19:50:10.459Z,62.62
2023-08-11T19:52:37.266Z,62.48
2023-08-11T19:55:04.635Z,61.81
2023-08-11T19:57:31.274Z,62.02
2023-08-11T19:59:58.105Z,63.66
2023-08-11T20:02:24.817Z,63.87
2023-08-11T20:04:51.573Z,63.51
2023-08-11T20:07:18.241Z,63.55
2023-08-11T20:09:44.945Z,64.65
2023-08-11T20:12:11.673Z,65.24
2023-08-11T20:14:38.470Z,65.27
2023-08-11T20:17:05.176Z,65.47
2023-08-11T20:19:31.985Z,64.97
2023-08-11T20:21:59.811Z,65.32
2023-08-11T20:24:26.554Z,64.96
2023-08-11T20:26:57.394Z,64.80
2023-08-11T20:29:25.367Z,65.26
2023-08-11T20:31:55.886Z,64.73
2023-08-11T20:34:23.987Z,64.19
2023-08-11T20:36:51.284Z,64.66
2023-08-11T20:39:18.054Z,64.44
2023-08-11T20:41:44.807Z,65.18
2023-08-11T20:44:11.844Z,65.60
2023-08-11T20:46:38.858Z,65.14
2023-08-11T20:49:05.793Z,64.51
2023-08-11T20:51:32.467Z,64.04
2023-08-11T20:53:59.229Z,64.46
2023-08-11T20:56:25.977Z,64.81
2023-08-11T20:58:52.721Z,63.90
2023-08-11T21:01:19.444Z,64.49
2023-08-11T21:03:46.411Z,65.71
2023-08-11T21:06:13.159Z,65.18
2023-08-11T21:08:47.793Z,64.39
2023-08-11T21:11:15.675Z,64.46
2023-08-11T21:13:42.320Z,65.50
2023-08-11T21:16:09.226Z,65.42
2023-08-11T21:18:36.191Z,64.39
2023-08-11T21:21:02.973Z,64.19
2023-08-11T21:23:29.666Z,63.26
2023-08-11T21:25:56.408Z,64.25
2023-08-11T21:28:23.078Z,65.15
2023-08-11T21:31:03.880Z,65.21
2023-08-11T21:33:34.790Z,64.41
2023-08-11T21:36:01.488Z,65.20
2023-08-11T21:38:28.537Z,66.03
2023-08-11T21:40:55.970Z,66.95
2023-08-11T21:43:23.150Z,67.57
2023-08-11T21:45:49.921Z,67.06
2023-08-11T21:48:16.756Z,66.62
2023-08-11T21:50:43.728Z,66.67
2023-08-11T21:53:22.312Z,66.64
2023-08-11T21:55:50.763Z,65.87
2023-08-11T21:58:17.442Z,65.55
2023-08-11T22:00:45.006Z,65.47
2023-08-11T22:03:12.083Z,65.39
2023-08-11T22:05:39.016Z,65.26
2023-08-11T22:08:05.940Z,65.42
2023-08-11T22:10:32.777Z,65.20
2023-08-11T22:12:59.569Z,64.97
2023-08-11T22:15:26.308Z,65.11
2023-08-11T22:17:54.755Z,65.33
2023-08-11T22:20:22.017Z,66.70
2023-08-11T22:22:48.652Z,67.53
2023-08-11T22:25:16.131Z,66.68
2023-08-11T22:27:43.176Z,66.46
2023-08-11T22:30:10.279Z,66.19
2023-08-11T22:32:37.021Z,65.99
2023-08-11T22:35:04.132Z,66.62
2023-08-11T22:37:30.893Z,67.16
2023-08-11T22:39:57.751Z,67.83
2023-08-11T22:42:27.814Z,67.57
2023-08-11T22:44:55.455Z,67.95
2023-08-11T22:47:23.464Z,67.30
2023-08-11T22:49:50.930Z,67.86
2023-08-11T22:52:18.808Z,67.41
2023-08-11T22:54:45.578Z,66.64
2023-08-11T22:57:12.500Z,66.26
2023-08-11T22:59:39.457Z,66.10
2023-08-11T23:02:06.128Z,66.31
2023-08-11T23:04:32.872Z,66.20
2023-08-11T23:06:59.586Z,66.18
2023-08-11T23:09:26.751Z,67.23
2023-08-11T23:11:53.455Z,66.49
2023-08-11T23:14:20.152Z,66.26
2023-08-11T23:16:46.904Z,65.89
2023-08-11T23:19:13.669Z,66.34
2023-08-11T23:21:40.347Z,66.82
2023-08-11T23:24:07.641Z,66.57
2023-08-11T23:26:34.305Z,66.90
2023-08-11T23:29:01.424Z,67.43
2023-08-11T23:31:28.265Z,67.60
2023-08-11T23:33:55.030Z,67.31
2023-08-11T23:36:21.710Z,67.43
2023-08-11T23:38:48.952Z,67.43
2023-08-11T23:41:15.650Z,67.47
2023-08-11T23:43:42.404Z,67.23
2023-08-11T23:46:14.814Z,66.98
2023-08-11T23:48:44.846Z,67.21
2023-08-11T23:51:11.756Z,67.42
2023-08-11T23:53:38.670Z,67.45
2023-08-11T23:56:05.466Z,68.20
2023-08-11T23:58:32.242Z,68.29
